Allison, Texas
Current Conditions -  °F | °C
As of 3:35 AM on Saturday 25 Oct 2014 (Local Time) from KHHF Reporting Station
Clear Clear  
Wind Chill: 51°   Ceiling: Unl
Heat Index: 51°   Visibility: 10mi
Dew Point: 49°   Wind: 0mph
Humidity: 95%   Direction: NA
Pressure: 30.09"   Gusts: NA
Location:  35.61°N, 100.1°W
Report Text: KHHF 250835Z AUTO 00000KT 10SM CLR 10/10 A3009 RMK AO2 T01030096
Loading
Personal Weather Stations






























Interactive Weather Map
Tropical Storm Tracking
New forecast layout! Learn more

10-Day Weather Forecast

Advertisements
Track Severe Weather on mobile